sensor_id;sensor_type;location;lat;lon;timestamp;temperature;humidity
66271;DHT22;53063;39.614;8.814;2022-12-10T00:01:52;15.00;99.90
66271;DHT22;53063;39.614;8.814;2022-12-10T00:04:19;15.00;99.90
66271;DHT22;53063;39.614;8.814;2022-12-10T00:06:46;15.00;99.90
66271;DHT22;53063;39.614;8.814;2022-12-10T00:09:14;15.00;99.90
66271;DHT22;53063;39.614;8.814;2022-12-10T00:11:41;14.90;99.90
66271;DHT22;53063;39.614;8.814;2022-12-10T00:14:07;14.90;99.90
66271;DHT22;53063;39.614;8.814;2022-12-10T00:16:34;14.70;99.90
66271;DHT22;53063;39.614;8.814;2022-12-10T00:19:01;14.80;99.90
66271;DHT22;53063;39.614;8.814;2022-12-10T00:21:29;14.80;99.90
66271;DHT22;53063;39.614;8.814;2022-12-10T00:23:56;14.60;99.90
66271;DHT22;53063;39.614;8.814;2022-12-10T00:26:31;14.70;99.90
66271;DHT22;53063;39.614;8.814;2022-12-10T00:29:00;14.90;99.90
66271;DHT22;53063;39.614;8.814;2022-12-10T00:31:29;14.80;99.90
66271;DHT22;53063;39.614;8.814;2022-12-10T00:33:57;14.70;99.90
66271;DHT22;53063;39.614;8.814;2022-12-10T00:36:26;14.60;99.90
66271;DHT22;53063;39.614;8.814;2022-12-10T00:38:53;14.50;99.90
66271;DHT22;53063;39.614;8.814;2022-12-10T00:41:19;14.40;99.90
66271;DHT22;53063;39.614;8.814;2022-12-10T00:43:45;14.30;99.90
66271;DHT22;53063;39.614;8.814;2022-12-10T00:46:13;14.30;99.90
66271;DHT22;53063;39.614;8.814;2022-12-10T00:48:40;14.20;99.90
66271;DHT22;53063;39.614;8.814;2022-12-10T00:51:16;14.30;99.90
66271;DHT22;53063;39.614;8.814;2022-12-10T00:53:43;14.50;99.90
66271;DHT22;53063;39.614;8.814;2022-12-10T00:56:10;14.50;99.90
66271;DHT22;53063;39.614;8.814;2022-12-10T00:58:38;14.50;99.90
66271;DHT22;53063;39.614;8.814;2022-12-10T01:01:12;14.50;99.90
66271;DHT22;53063;39.614;8.814;2022-12-10T01:03:41;14.50;99.90
66271;DHT22;53063;39.614;8.814;2022-12-10T01:06:09;14.50;99.90
66271;DHT22;53063;39.614;8.814;2022-12-10T01:08:35;14.50;99.90
66271;DHT22;53063;39.614;8.814;2022-12-10T01:11:00;14.60;99.90
66271;DHT22;53063;39.614;8.814;2022-12-10T01:13:26;14.60;99.90
66271;DHT22;53063;39.614;8.814;2022-12-10T01:15:52;14.70;99.90
66271;DHT22;53063;39.614;8.814;2022-12-10T01:18:18;14.60;99.90
66271;DHT22;53063;39.614;8.814;2022-12-10T01:20:44;14.60;99.90
66271;DHT22;53063;39.614;8.814;2022-12-10T01:23:10;14.70;99.90
66271;DHT22;53063;39.614;8.814;2022-12-10T01:25:36;14.60;99.90
66271;DHT22;53063;39.614;8.814;2022-12-10T01:28:02;14.70;99.90
66271;DHT22;53063;39.614;8.814;2022-12-10T01:30:27;14.70;99.90
66271;DHT22;53063;39.614;8.814;2022-12-10T01:32:53;14.60;99.90
66271;DHT22;53063;39.614;8.814;2022-12-10T01:35:19;14.40;99.90
66271;DHT22;53063;39.614;8.814;2022-12-10T01:37:47;14.60;99.90
66271;DHT22;53063;39.614;8.814;2022-12-10T01:40:13;14.70;99.90
66271;DHT22;53063;39.614;8.814;2022-12-10T01:42:39;14.60;99.90
66271;DHT22;53063;39.614;8.814;2022-12-10T01:45:09;14.50;99.90
66271;DHT22;53063;39.614;8.814;2022-12-10T01:47:35;14.60;99.90
66271;DHT22;53063;39.614;8.814;2022-12-10T01:50:02;14.50;99.90
66271;DHT22;53063;39.614;8.814;2022-12-10T01:52:28;14.50;99.90
66271;DHT22;53063;39.614;8.814;2022-12-10T01:54:55;14.60;99.90
66271;DHT22;53063;39.614;8.814;2022-12-10T01:57:26;14.70;99.90
66271;DHT22;53063;39.614;8.814;2022-12-10T01:59:59;14.60;99.90
66271;DHT22;53063;39.614;8.814;2022-12-10T02:05:32;14.60;99.90
66271;DHT22;53063;39.614;8.814;2022-12-10T02:08:24;14.60;99.90
66271;DHT22;53063;39.614;8.814;2022-12-10T02:13:43;14.60;99.90
66271;DHT22;53063;39.614;8.814;2022-12-10T02:16:14;14.60;99.90
66271;DHT22;53063;39.614;8.814;2022-12-10T02:18:56;14.70;99.90
66271;DHT22;53063;39.614;8.814;2022-12-10T02:21:32;14.60;99.90
66271;DHT22;53063;39.614;8.814;2022-12-10T02:24:02;14.70;99.90
66271;DHT22;53063;39.614;8.814;2022-12-10T02:29:17;14.50;99.90
66271;DHT22;53063;39.614;8.814;2022-12-10T02:31:54;14.60;99.90
66271;DHT22;53063;39.614;8.814;2022-12-10T02:34:21;14.60;99.90
66271;DHT22;53063;39.614;8.814;2022-12-10T02:36:50;14.70;99.90
66271;DHT22;53063;39.614;8.814;2022-12-10T02:39:25;14.70;99.90
66271;DHT22;53063;39.614;8.814;2022-12-10T02:41:58;14.80;99.90
66271;DHT22;53063;39.614;8.814;2022-12-10T02:44:27;14.80;99.90
66271;DHT22;53063;39.614;8.814;2022-12-10T02:46:56;14.80;99.90
66271;DHT22;53063;39.614;8.814;2022-12-10T02:49:28;14.80;99.90
66271;DHT22;53063;39.614;8.814;2022-12-10T02:52:05;14.80;99.90
66271;DHT22;53063;39.614;8.814;2022-12-10T02:54:43;14.80;99.90
66271;DHT22;53063;39.614;8.814;2022-12-10T03:03:11;14.50;99.90
66271;DHT22;53063;39.614;8.814;2022-12-10T03:06:11;14.30;99.90
66271;DHT22;53063;39.614;8.814;2022-12-10T03:08:53;14.30;99.90
66271;DHT22;53063;39.614;8.814;2022-12-10T03:11:22;14.20;99.90
66271;DHT22;53063;39.614;8.814;2022-12-10T03:14:13;14.30;99.90
66271;DHT22;53063;39.614;8.814;2022-12-10T03:16:42;14.30;99.90
66271;DHT22;53063;39.614;8.814;2022-12-10T03:19:12;14.40;99.90
66271;DHT22;53063;39.614;8.814;2022-12-10T03:21:41;14.40;99.90
66271;DHT22;53063;39.614;8.814;2022-12-10T03:24:09;14.40;99.90
66271;DHT22;53063;39.614;8.814;2022-12-10T03:26:37;14.40;99.90
66271;DHT22;53063;39.614;8.814;2022-12-10T03:29:09;14.40;99.90
66271;DHT22;53063;39.614;8.814;2022-12-10T03:31:38;14.50;99.90
66271;DHT22;53063;39.614;8.814;2022-12-10T03:34:05;14.60;99.90
66271;DHT22;53063;39.614;8.814;2022-12-10T03:36:33;14.60;99.90
66271;DHT22;53063;39.614;8.814;2022-12-10T03:39:00;14.60;99.90
66271;DHT22;53063;39.614;8.814;2022-12-10T03:41:26;14.70;99.90
66271;DHT22;53063;39.614;8.814;2022-12-10T03:43:57;14.60;99.90
66271;DHT22;53063;39.614;8.814;2022-12-10T03:46:25;14.80;99.90
66271;DHT22;53063;39.614;8.814;2022-12-10T03:48:52;14.70;99.90
66271;DHT22;53063;39.614;8.814;2022-12-10T03:51:18;14.70;99.90
66271;DHT22;53063;39.614;8.814;2022-12-10T03:53:44;14.90;99.90
66271;DHT22;53063;39.614;8.814;2022-12-10T03:56:11;14.70;99.90
66271;DHT22;53063;39.614;8.814;2022-12-10T03:58:37;14.70;99.90
66271;DHT22;53063;39.614;8.814;2022-12-10T04:01:06;14.70;99.90
66271;DHT22;53063;39.614;8.814;2022-12-10T04:03:35;14.80;99.90
66271;DHT22;53063;39.614;8.814;2022-12-10T04:06:13;14.80;99.90
66271;DHT22;53063;39.614;8.814;2022-12-10T04:08:39;14.90;99.90
66271;DHT22;53063;39.614;8.814;2022-12-10T04:11:08;14.80;99.90
66271;DHT22;53063;39.614;8.814;2022-12-10T04:13:36;14.80;99.90
66271;DHT22;53063;39.614;8.814;2022-12-10T04:16:22;14.80;99.90
66271;DHT22;53063;39.614;8.814;2022-12-10T04:21:29;14.80;99.90
66271;DHT22;53063;39.614;8.814;2022-12-10T04:24:14;14.70;99.90
66271;DHT22;53063;39.614;8.814;2022-12-10T04:27:03;14.70;99.90
66271;DHT22;53063;39.614;8.814;2022-12-10T04:29:30;14.70;99.90
66271;DHT22;53063;39.614;8.814;2022-12-10T04:31:57;14.70;99.90
66271;DHT22;53063;39.614;8.814;2022-12-10T04:34:24;14.60;99.90
66271;DHT22;53063;39.614;8.814;2022-12-10T04:36:50;14.60;99.90
66271;DHT22;53063;39.614;8.814;2022-12-10T04:39:17;14.60;99.90
66271;DHT22;53063;39.614;8.814;2022-12-10T04:41:45;14.70;99.90
66271;DHT22;53063;39.614;8.814;2022-12-10T04:44:11;14.60;99.90
66271;DHT22;53063;39.614;8.814;2022-12-10T04:46:38;14.60;99.90
66271;DHT22;53063;39.614;8.814;2022-12-10T04:49:04;14.50;99.90
66271;DHT22;53063;39.614;8.814;2022-12-10T04:51:31;14.60;99.90
66271;DHT22;53063;39.614;8.814;2022-12-10T04:53:58;14.60;99.90
66271;DHT22;53063;39.614;8.814;2022-12-10T04:56:24;14.60;99.90
66271;DHT22;53063;39.614;8.814;2022-12-10T04:58:50;14.60;99.90
66271;DHT22;53063;39.614;8.814;2022-12-10T05:01:17;14.50;99.90
66271;DHT22;53063;39.614;8.814;2022-12-10T05:03:45;14.40;99.90
66271;DHT22;53063;39.614;8.814;2022-12-10T05:06:13;14.30;99.90
66271;DHT22;53063;39.614;8.814;2022-12-10T05:08:40;14.30;99.90
66271;DHT22;53063;39.614;8.814;2022-12-10T05:11:09;14.30;99.90
66271;DHT22;53063;39.614;8.814;2022-12-10T05:13:35;14.30;99.90
66271;DHT22;53063;39.614;8.814;2022-12-10T05:16:02;14.30;99.90
66271;DHT22;53063;39.614;8.814;2022-12-10T05:18:29;14.30;99.90
66271;DHT22;53063;39.614;8.814;2022-12-10T05:21:02;14.20;99.90
66271;DHT22;53063;39.614;8.814;2022-12-10T05:23:29;14.30;99.90
66271;DHT22;53063;39.614;8.814;2022-12-10T05:28:44;14.30;99.90
66271;DHT22;53063;39.614;8.814;2022-12-10T05:31:18;14.20;99.90
66271;DHT22;53063;39.614;8.814;2022-12-10T05:33:45;14.30;99.90
66271;DHT22;53063;39.614;8.814;2022-12-10T05:36:13;14.30;99.90
66271;DHT22;53063;39.614;8.814;2022-12-10T05:38:40;14.20;99.90
66271;DHT22;53063;39.614;8.814;2022-12-10T05:41:13;14.20;99.90
66271;DHT22;53063;39.614;8.814;2022-12-10T05:43:39;14.20;99.90
66271;DHT22;53063;39.614;8.814;2022-12-10T05:46:09;14.10;99.90
66271;DHT22;53063;39.614;8.814;2022-12-10T05:48:36;14.00;99.90
66271;DHT22;53063;39.614;8.814;2022-12-10T05:51:13;14.00;99.90
66271;DHT22;53063;39.614;8.814;2022-12-10T05:53:40;14.10;99.90
66271;DHT22;53063;39.614;8.814;2022-12-10T05:56:12;14.20;99.90
66271;DHT22;53063;39.614;8.814;2022-12-10T05:58:39;14.20;99.90
66271;DHT22;53063;39.614;8.814;2022-12-10T06:01:07;14.20;99.90
66271;DHT22;53063;39.614;8.814;2022-12-10T06:03:33;14.20;99.90
66271;DHT22;53063;39.614;8.814;2022-12-10T06:05:59;14.00;99.90
66271;DHT22;53063;39.614;8.814;2022-12-10T06:08:25;13.80;99.90
66271;DHT22;53063;39.614;8.814;2022-12-10T06:10:50;13.70;99.90
66271;DHT22;53063;39.614;8.814;2022-12-10T06:13:16;13.50;99.90
66271;DHT22;53063;39.614;8.814;2022-12-10T06:15:42;13.40;99.90
66271;DHT22;53063;39.614;8.814;2022-12-10T06:18:08;13.40;99.90
66271;DHT22;53063;39.614;8.814;2022-12-10T06:20:38;13.40;99.90
66271;DHT22;53063;39.614;8.814;2022-12-10T06:23:04;13.40;99.90
66271;DHT22;53063;39.614;8.814;2022-12-10T06:25:30;13.40;99.90
66271;DHT22;53063;39.614;8.814;2022-12-10T06:27:56;13.40;99.90
66271;DHT22;53063;39.614;8.814;2022-12-10T06:30:22;13.40;99.90
66271;DHT22;53063;39.614;8.814;2022-12-10T06:32:48;13.40;99.90
66271;DHT22;53063;39.614;8.814;2022-12-10T06:35:14;13.40;99.90
66271;DHT22;53063;39.614;8.814;2022-12-10T06:37:40;13.40;99.90
66271;DHT22;53063;39.614;8.814;2022-12-10T06:40:06;13.40;99.90
66271;DHT22;53063;39.614;8.814;2022-12-10T06:42:32;13.40;99.90
66271;DHT22;53063;39.614;8.814;2022-12-10T06:44:58;13.50;99.90
66271;DHT22;53063;39.614;8.814;2022-12-10T06:47:24;13.50;99.90
66271;DHT22;53063;39.614;8.814;2022-12-10T06:49:50;13.60;99.90
66271;DHT22;53063;39.614;8.814;2022-12-10T06:52:16;13.60;99.90
66271;DHT22;53063;39.614;8.814;2022-12-10T06:54:41;13.60;99.90
66271;DHT22;53063;39.614;8.814;2022-12-10T06:57:07;13.60;99.90
66271;DHT22;53063;39.614;8.814;2022-12-10T06:59:33;13.60;99.90
66271;DHT22;53063;39.614;8.814;2022-12-10T07:01:59;13.60;99.90
66271;DHT22;53063;39.614;8.814;2022-12-10T07:04:25;13.70;99.90
66271;DHT22;53063;39.614;8.814;2022-12-10T07:06:51;13.70;99.90
66271;DHT22;53063;39.614;8.814;2022-12-10T07:09:17;13.60;99.90
66271;DHT22;53063;39.614;8.814;2022-12-10T07:11:43;13.50;99.90
66271;DHT22;53063;39.614;8.814;2022-12-10T07:14:14;13.30;99.90
66271;DHT22;53063;39.614;8.814;2022-12-10T07:16:41;13.30;99.90
66271;DHT22;53063;39.614;8.814;2022-12-10T07:19:09;13.30;99.90
66271;DHT22;53063;39.614;8.814;2022-12-10T07:21:39;13.40;99.90
66271;DHT22;53063;39.614;8.814;2022-12-10T07:24:08;13.40;99.90
66271;DHT22;53063;39.614;8.814;2022-12-10T07:26:38;13.60;99.90
66271;DHT22;53063;39.614;8.814;2022-12-10T07:29:05;13.50;99.90
66271;DHT22;53063;39.614;8.814;2022-12-10T07:31:32;13.60;99.90
66271;DHT22;53063;39.614;8.814;2022-12-10T07:33:59;13.70;99.90
66271;DHT22;53063;39.614;8.814;2022-12-10T07:36:25;13.80;99.90
66271;DHT22;53063;39.614;8.814;2022-12-10T07:38:52;13.80;99.90
66271;DHT22;53063;39.614;8.814;2022-12-10T07:41:21;13.80;99.90
66271;DHT22;53063;39.614;8.814;2022-12-10T07:43:47;14.00;99.90
66271;DHT22;53063;39.614;8.814;2022-12-10T07:48:41;14.10;99.90
66271;DHT22;53063;39.614;8.814;2022-12-10T07:51:08;14.20;99.90
66271;DHT22;53063;39.614;8.814;2022-12-10T07:53:35;14.30;99.90
66271;DHT22;53063;39.614;8.814;2022-12-10T07:56:01;14.30;99.90
66271;DHT22;53063;39.614;8.814;2022-12-10T07:58:28;14.30;99.90
66271;DHT22;53063;39.614;8.814;2022-12-10T08:00:54;14.30;99.90
66271;DHT22;53063;39.614;8.814;2022-12-10T08:03:19;14.30;99.90
66271;DHT22;53063;39.614;8.814;2022-12-10T08:05:45;14.30;99.90
66271;DHT22;53063;39.614;8.814;2022-12-10T08:08:11;14.30;99.90
66271;DHT22;53063;39.614;8.814;2022-12-10T08:10:38;14.20;99.90
66271;DHT22;53063;39.614;8.814;2022-12-10T08:13:05;14.30;99.90
66271;DHT22;53063;39.614;8.814;2022-12-10T08:15:32;14.30;99.90
66271;DHT22;53063;39.614;8.814;2022-12-10T08:17:58;14.40;99.90
66271;DHT22;53063;39.614;8.814;2022-12-10T08:20:24;14.50;99.90
66271;DHT22;53063;39.614;8.814;2022-12-10T08:22:51;14.60;99.90
66271;DHT22;53063;39.614;8.814;2022-12-10T08:25:17;14.60;99.90
66271;DHT22;53063;39.614;8.814;2022-12-10T08:27:43;14.70;99.90
66271;DHT22;53063;39.614;8.814;2022-12-10T08:30:09;14.70;99.90
66271;DHT22;53063;39.614;8.814;2022-12-10T08:32:35;14.80;99.90
66271;DHT22;53063;39.614;8.814;2022-12-10T08:35:01;14.70;99.90
66271;DHT22;53063;39.614;8.814;2022-12-10T08:37:27;15.30;99.90
66271;DHT22;53063;39.614;8.814;2022-12-10T08:39:53;16.10;99.90
66271;DHT22;53063;39.614;8.814;2022-12-10T08:42:18;16.30;99.90
66271;DHT22;53063;39.614;8.814;2022-12-10T08:44:45;17.40;99.90
66271;DHT22;53063;39.614;8.814;2022-12-10T08:47:11;17.40;99.90
66271;DHT22;53063;39.614;8.814;2022-12-10T08:49:37;16.90;99.90
66271;DHT22;53063;39.614;8.814;2022-12-10T08:52:03;17.00;99.90
66271;DHT22;53063;39.614;8.814;2022-12-10T08:54:29;16.60;99.90
66271;DHT22;53063;39.614;8.814;2022-12-10T08:56:55;16.90;99.90
66271;DHT22;53063;39.614;8.814;2022-12-10T08:59:21;16.60;99.90
66271;DHT22;53063;39.614;8.814;2022-12-10T09:01:46;16.50;99.90
66271;DHT22;53063;39.614;8.814;2022-12-10T09:04:12;16.50;99.90
66271;DHT22;53063;39.614;8.814;2022-12-10T09:06:39;16.30;99.90
66271;DHT22;53063;39.614;8.814;2022-12-10T09:09:05;16.40;99.90
66271;DHT22;53063;39.614;8.814;2022-12-10T09:11:32;16.80;99.90
66271;DHT22;53063;39.614;8.814;2022-12-10T09:13:59;16.70;99.90
66271;DHT22;53063;39.614;8.814;2022-12-10T09:16:31;16.60;99.90
66271;DHT22;53063;39.614;8.814;2022-12-10T09:18:58;16.70;99.90
66271;DHT22;53063;39.614;8.814;2022-12-10T09:21:24;16.60;99.90
66271;DHT22;53063;39.614;8.814;2022-12-10T09:23:51;16.70;99.90
66271;DHT22;53063;39.614;8.814;2022-12-10T09:26:17;17.40;99.90
66271;DHT22;53063;39.614;8.814;2022-12-10T09:28:44;17.80;99.90
66271;DHT22;53063;39.614;8.814;2022-12-10T09:31:12;19.50;97.60
66271;DHT22;53063;39.614;8.814;2022-12-10T09:33:39;18.90;98.80
66271;DHT22;53063;39.614;8.814;2022-12-10T09:36:07;18.40;99.80
66271;DHT22;53063;39.614;8.814;2022-12-10T09:38:34;18.00;99.90
66271;DHT22;53063;39.614;8.814;2022-12-10T09:41:03;17.80;99.90
66271;DHT22;53063;39.614;8.814;2022-12-10T09:43:43;17.30;99.90
66271;DHT22;53063;39.614;8.814;2022-12-10T09:49:09;16.80;99.90
66271;DHT22;53063;39.614;8.814;2022-12-10T09:51:37;16.50;99.90
66271;DHT22;53063;39.614;8.814;2022-12-10T09:56:57;15.50;99.90
66271;DHT22;53063;39.614;8.814;2022-12-10T09:59:29;15.40;99.90
66271;DHT22;53063;39.614;8.814;2022-12-10T10:02:21;15.50;99.90
66271;DHT22;53063;39.614;8.814;2022-12-10T10:04:49;15.50;99.90
66271;DHT22;53063;39.614;8.814;2022-12-10T10:07:38;15.40;99.90
66271;DHT22;53063;39.614;8.814;2022-12-10T10:10:29;15.60;99.90
66271;DHT22;53063;39.614;8.814;2022-12-10T10:13:00;15.50;99.90
66271;DHT22;53063;39.614;8.814;2022-12-10T10:15:31;15.20;99.90
66271;DHT22;53063;39.614;8.814;2022-12-10T10:20:53;15.10;99.90
66271;DHT22;53063;39.614;8.814;2022-12-10T10:23:19;15.20;99.90
66271;DHT22;53063;39.614;8.814;2022-12-10T10:25:46;15.30;99.90
66271;DHT22;53063;39.614;8.814;2022-12-10T10:28:20;15.60;99.90
66271;DHT22;53063;39.614;8.814;2022-12-10T10:30:47;15.70;99.90
66271;DHT22;53063;39.614;8.814;2022-12-10T10:33:14;16.00;99.90
66271;DHT22;53063;39.614;8.814;2022-12-10T10:35:55;16.60;99.90
66271;DHT22;53063;39.614;8.814;2022-12-10T10:38:27;16.70;99.90
66271;DHT22;53063;39.614;8.814;2022-12-10T10:41:03;17.00;99.90
66271;DHT22;53063;39.614;8.814;2022-12-10T10:43:43;16.80;99.90
66271;DHT22;53063;39.614;8.814;2022-12-10T10:46:16;16.70;99.90
66271;DHT22;53063;39.614;8.814;2022-12-10T10:48:43;16.10;99.90
66271;DHT22;53063;39.614;8.814;2022-12-10T10:54:04;16.70;99.90
66271;DHT22;53063;39.614;8.814;2022-12-10T10:56:40;17.30;98.50
66271;DHT22;53063;39.614;8.814;2022-12-10T11:01:48;21.30;72.20
66271;DHT22;53063;39.614;8.814;2022-12-10T11:04:16;20.90;76.70
66271;DHT22;53063;39.614;8.814;2022-12-10T11:06:44;20.10;79.60
66271;DHT22;53063;39.614;8.814;2022-12-10T11:09:28;19.70;83.30
66271;DHT22;53063;39.614;8.814;2022-12-10T11:12:00;18.80;82.70
66271;DHT22;53063;39.614;8.814;2022-12-10T11:14:31;17.80;86.00
66271;DHT22;53063;39.614;8.814;2022-12-10T11:17:18;17.20;91.10
66271;DHT22;53063;39.614;8.814;2022-12-10T11:24:51;17.60;99.90
66271;DHT22;53063;39.614;8.814;2022-12-10T11:28:20;17.20;99.10
66271;DHT22;53063;39.614;8.814;2022-12-10T11:30:23;17.40;99.90
66271;DHT22;53063;39.614;8.814;2022-12-10T11:38:38;15.80;99.90
66271;DHT22;53063;39.614;8.814;2022-12-10T11:49:05;15.00;99.90
66271;DHT22;53063;39.614;8.814;2022-12-10T11:51:44;14.70;99.90
66271;DHT22;53063;39.614;8.814;2022-12-10T11:57:25;14.20;99.90
66271;DHT22;53063;39.614;8.814;2022-12-10T12:19:13;13.30;99.90
66271;DHT22;53063;39.614;8.814;2022-12-10T12:21:40;13.40;99.90
66271;DHT22;53063;39.614;8.814;2022-12-10T12:24:23;13.50;99.90
66271;DHT22;53063;39.614;8.814;2022-12-10T12:26:58;13.50;99.90
66271;DHT22;53063;39.614;8.814;2022-12-10T12:29:45;13.60;99.90
66271;DHT22;53063;39.614;8.814;2022-12-10T12:32:27;13.80;99.90
66271;DHT22;53063;39.614;8.814;2022-12-10T12:35:06;13.90;99.90
66271;DHT22;53063;39.614;8.814;2022-12-10T12:37:40;14.00;99.90
66271;DHT22;53063;39.614;8.814;2022-12-10T12:40:29;14.20;99.90
66271;DHT22;53063;39.614;8.814;2022-12-10T12:43:08;14.30;99.90
66271;DHT22;53063;39.614;8.814;2022-12-10T12:45:40;14.40;99.90
66271;DHT22;53063;39.614;8.814;2022-12-10T12:48:13;14.70;99.90
66271;DHT22;53063;39.614;8.814;2022-12-10T12:53:43;14.90;99.90
66271;DHT22;53063;39.614;8.814;2022-12-10T13:02:18;14.80;99.90
66271;DHT22;53063;39.614;8.814;2022-12-10T13:04:46;14.80;99.90
66271;DHT22;53063;39.614;8.814;2022-12-10T13:09:48;14.60;99.90
66271;DHT22;53063;39.614;8.814;2022-12-10T13:17:34;14.70;99.90
66271;DHT22;53063;39.614;8.814;2022-12-10T13:22:58;15.20;99.90
66271;DHT22;53063;39.614;8.814;2022-12-10T13:33:49;16.00;99.90
66271;DHT22;53063;39.614;8.814;2022-12-10T13:39:20;15.60;99.90
66271;DHT22;53063;39.614;8.814;2022-12-10T13:47:41;15.60;99.90
66271;DHT22;53063;39.614;8.814;2022-12-10T13:50:41;15.30;99.90
66271;DHT22;53063;39.614;8.814;2022-12-10T13:53:12;15.40;99.90
66271;DHT22;53063;39.614;8.814;2022-12-10T14:01:47;15.00;99.90
66271;DHT22;53063;39.614;8.814;2022-12-10T14:06:52;14.90;99.90
66271;DHT22;53063;39.614;8.814;2022-12-10T14:09:33;14.90;99.90
66271;DHT22;53063;39.614;8.814;2022-12-10T14:12:29;14.90;99.90
66271;DHT22;53063;39.614;8.814;2022-12-10T14:14:59;14.80;99.90
66271;DHT22;53063;39.614;8.814;2022-12-10T14:17:42;14.80;99.90
66271;DHT22;53063;39.614;8.814;2022-12-10T14:20:14;14.80;99.90
66271;DHT22;53063;39.614;8.814;2022-12-10T14:22:50;14.80;99.90
66271;DHT22;53063;39.614;8.814;2022-12-10T14:25:18;14.70;99.90
66271;DHT22;53063;39.614;8.814;2022-12-10T14:27:50;14.60;99.90
66271;DHT22;53063;39.614;8.814;2022-12-10T14:30:25;14.50;99.90
66271;DHT22;53063;39.614;8.814;2022-12-10T14:32:56;14.20;99.90
66271;DHT22;53063;39.614;8.814;2022-12-10T14:35:26;14.10;99.90
66271;DHT22;53063;39.614;8.814;2022-12-10T14:37:55;14.10;99.90
66271;DHT22;53063;39.614;8.814;2022-12-10T14:40:39;14.00;99.90
66271;DHT22;53063;39.614;8.814;2022-12-10T14:43:13;14.00;99.90
66271;DHT22;53063;39.614;8.814;2022-12-10T14:45:46;13.90;99.90
66271;DHT22;53063;39.614;8.814;2022-12-10T14:48:14;13.90;99.90
66271;DHT22;53063;39.614;8.814;2022-12-10T14:50:43;13.80;99.90
66271;DHT22;53063;39.614;8.814;2022-12-10T14:53:17;13.80;99.90
66271;DHT22;53063;39.614;8.814;2022-12-10T14:55:46;13.70;99.90
66271;DHT22;53063;39.614;8.814;2022-12-10T15:01:00;13.70;99.90
66271;DHT22;53063;39.614;8.814;2022-12-10T15:03:32;13.60;99.90
66271;DHT22;53063;39.614;8.814;2022-12-10T15:06:01;13.60;99.90
66271;DHT22;53063;39.614;8.814;2022-12-10T15:08:29;13.60;99.90
66271;DHT22;53063;39.614;8.814;2022-12-10T15:10:59;13.50;99.90
66271;DHT22;53063;39.614;8.814;2022-12-10T15:13:33;13.50;99.90
66271;DHT22;53063;39.614;8.814;2022-12-10T15:16:00;13.40;99.90
66271;DHT22;53063;39.614;8.814;2022-12-10T15:18:38;13.40;99.90
66271;DHT22;53063;39.614;8.814;2022-12-10T15:21:14;13.40;99.90
66271;DHT22;53063;39.614;8.814;2022-12-10T15:23:45;13.30;99.90
66271;DHT22;53063;39.614;8.814;2022-12-10T15:26:20;13.20;99.90
66271;DHT22;53063;39.614;8.814;2022-12-10T15:28:49;13.10;99.90
66271;DHT22;53063;39.614;8.814;2022-12-10T15:33:49;13.00;99.90
66271;DHT22;53063;39.614;8.814;2022-12-10T15:36:37;13.00;99.90
66271;DHT22;53063;39.614;8.814;2022-12-10T15:41:48;13.10;99.90
66271;DHT22;53063;39.614;8.814;2022-12-10T15:44:23;13.10;99.90
66271;DHT22;53063;39.614;8.814;2022-12-10T15:47:18;13.00;99.90
66271;DHT22;53063;39.614;8.814;2022-12-10T15:49:46;13.10;99.90
66271;DHT22;53063;39.614;8.814;2022-12-10T15:52:27;13.20;99.90
66271;DHT22;53063;39.614;8.814;2022-12-10T15:54:55;13.10;99.90
66271;DHT22;53063;39.614;8.814;2022-12-10T15:57:24;13.10;99.90
66271;DHT22;53063;39.614;8.814;2022-12-10T15:59:55;13.10;99.90
66271;DHT22;53063;39.614;8.814;2022-12-10T16:02:37;13.00;99.90
66271;DHT22;53063;39.614;8.814;2022-12-10T16:05:26;13.00;99.90
66271;DHT22;53063;39.614;8.814;2022-12-10T16:07:55;13.00;99.90
66271;DHT22;53063;39.614;8.814;2022-12-10T16:10:24;12.90;99.90
66271;DHT22;53063;39.614;8.814;2022-12-10T16:13:24;12.90;99.90
66271;DHT22;53063;39.614;8.814;2022-12-10T16:16:00;12.90;99.90
66271;DHT22;53063;39.614;8.814;2022-12-10T16:18:26;12.90;99.90
66271;DHT22;53063;39.614;8.814;2022-12-10T16:20:52;12.90;99.90
66271;DHT22;53063;39.614;8.814;2022-12-10T16:23:18;12.90;99.90
66271;DHT22;53063;39.614;8.814;2022-12-10T16:25:45;12.90;99.90
66271;DHT22;53063;39.614;8.814;2022-12-10T16:28:20;12.90;99.90
66271;DHT22;53063;39.614;8.814;2022-12-10T16:30:51;12.80;99.90
66271;DHT22;53063;39.614;8.814;2022-12-10T16:33:20;12.80;99.90
66271;DHT22;53063;39.614;8.814;2022-12-10T16:35:47;12.80;99.90
66271;DHT22;53063;39.614;8.814;2022-12-10T16:38:13;12.80;99.90
66271;DHT22;53063;39.614;8.814;2022-12-10T16:40:41;12.80;99.90
66271;DHT22;53063;39.614;8.814;2022-12-10T16:43:27;12.70;99.90
66271;DHT22;53063;39.614;8.814;2022-12-10T16:45:54;12.70;99.90
66271;DHT22;53063;39.614;8.814;2022-12-10T16:48:21;12.70;99.90
66271;DHT22;53063;39.614;8.814;2022-12-10T16:50:49;12.70;99.90
66271;DHT22;53063;39.614;8.814;2022-12-10T16:53:23;12.70;99.90
66271;DHT22;53063;39.614;8.814;2022-12-10T16:55:50;12.60;99.90
66271;DHT22;53063;39.614;8.814;2022-12-10T16:58:16;12.60;99.90
66271;DHT22;53063;39.614;8.814;2022-12-10T17:00:47;12.60;99.90
66271;DHT22;53063;39.614;8.814;2022-12-10T17:03:18;12.60;99.90
66271;DHT22;53063;39.614;8.814;2022-12-10T17:08:16;12.50;99.90
66271;DHT22;53063;39.614;8.814;2022-12-10T17:10:42;12.50;99.90
66271;DHT22;53063;39.614;8.814;2022-12-10T17:13:28;12.50;99.90
66271;DHT22;53063;39.614;8.814;2022-12-10T17:15:56;12.50;99.90
66271;DHT22;53063;39.614;8.814;2022-12-10T17:18:22;12.40;99.90
66271;DHT22;53063;39.614;8.814;2022-12-10T17:20:49;12.40;99.90
66271;DHT22;53063;39.614;8.814;2022-12-10T17:23:16;12.40;99.90
66271;DHT22;53063;39.614;8.814;2022-12-10T17:25:42;12.30;99.90
66271;DHT22;53063;39.614;8.814;2022-12-10T17:28:18;12.30;99.90
66271;DHT22;53063;39.614;8.814;2022-12-10T17:30:44;12.30;99.90
66271;DHT22;53063;39.614;8.814;2022-12-10T17:33:14;12.30;99.90
66271;DHT22;53063;39.614;8.814;2022-12-10T17:35:42;12.30;99.90
66271;DHT22;53063;39.614;8.814;2022-12-10T17:38:17;12.20;99.90
66271;DHT22;53063;39.614;8.814;2022-12-10T17:40:43;12.20;99.90
66271;DHT22;53063;39.614;8.814;2022-12-10T17:43:10;12.10;99.90
66271;DHT22;53063;39.614;8.814;2022-12-10T17:45:36;12.10;99.90
66271;DHT22;53063;39.614;8.814;2022-12-10T17:48:03;12.10;99.90
66271;DHT22;53063;39.614;8.814;2022-12-10T17:50:35;12.10;99.90
66271;DHT22;53063;39.614;8.814;2022-12-10T17:53:03;12.10;99.90
66271;DHT22;53063;39.614;8.814;2022-12-10T17:55:31;12.00;99.90
66271;DHT22;53063;39.614;8.814;2022-12-10T17:57:57;12.00;99.90
66271;DHT22;53063;39.614;8.814;2022-12-10T18:00:26;11.90;99.90
66271;DHT22;53063;39.614;8.814;2022-12-10T18:02:53;11.80;99.90